sensor_id;sensor_type;location;lat;lon;timestamp;P1;durP1;ratioP1;P2;durP2;ratioP2
22983;SDS011;11658;48.908;9.140;2024-01-11T05:00:48;23.70;;;15.60;;
22983;SDS011;11658;48.908;9.140;2024-01-11T05:03:14;23.13;;;15.40;;
22983;SDS011;11658;48.908;9.140;2024-01-11T05:05:40;23.33;;;16.03;;
22983;SDS011;11658;48.908;9.140;2024-01-11T05:08:06;22.63;;;15.60;;
22983;SDS011;11658;48.908;9.140;2024-01-11T05:10:32;23.23;;;15.70;;
22983;SDS011;11658;48.908;9.140;2024-01-11T05:12:57;21.90;;;15.80;;
22983;SDS011;11658;48.908;9.140;2024-01-11T05:15:23;22.33;;;16.33;;
22983;SDS011;11658;48.908;9.140;2024-01-11T05:17:48;22.30;;;15.50;;
22983;SDS011;11658;48.908;9.140;2024-01-11T05:20:14;23.70;;;16.27;;
22983;SDS011;11658;48.908;9.140;2024-01-11T05:22:40;22.33;;;14.80;;
22983;SDS011;11658;48.908;9.140;2024-01-11T05:25:05;24.23;;;15.77;;
22983;SDS011;11658;48.908;9.140;2024-01-11T05:27:31;20.50;;;15.83;;
22983;SDS011;11658;48.908;9.140;2024-01-11T05:29:57;25.40;;;16.23;;
22983;SDS011;11658;48.908;9.140;2024-01-11T05:32:22;24.97;;;16.37;;
22983;SDS011;11658;48.908;9.140;2024-01-11T05:34:48;23.23;;;15.93;;
22983;SDS011;11658;48.908;9.140;2024-01-11T05:37:13;25.20;;;16.27;;
22983;SDS011;11658;48.908;9.140;2024-01-11T05:39:39;28.20;;;18.77;;
22983;SDS011;11658;48.908;9.140;2024-01-11T05:42:04;26.93;;;18.70;;
22983;SDS011;11658;48.908;9.140;2024-01-11T05:44:31;30.13;;;19.03;;
22983;SDS011;11658;48.908;9.140;2024-01-11T05:46:57;28.07;;;18.60;;
22983;SDS011;11658;48.908;9.140;2024-01-11T05:49:23;29.83;;;18.33;;
22983;SDS011;11658;48.908;9.140;2024-01-11T05:51:48;31.17;;;20.27;;
22983;SDS011;11658;48.908;9.140;2024-01-11T05:54:14;33.30;;;20.70;;
22983;SDS011;11658;48.908;9.140;2024-01-11T05:56:39;33.70;;;21.37;;
22983;SDS011;11658;48.908;9.140;2024-01-11T05:59:05;30.47;;;20.43;;
22983;SDS011;11658;48.908;9.140;2024-01-11T06:01:30;29.07;;;20.70;;
22983;SDS011;11658;48.908;9.140;2024-01-11T06:03:57;32.00;;;21.37;;
22983;SDS011;11658;48.908;9.140;2024-01-11T06:06:22;31.63;;;21.00;;
22983;SDS011;11658;48.908;9.140;2024-01-11T06:08:48;32.23;;;21.30;;
22983;SDS011;11658;48.908;9.140;2024-01-11T06:11:13;31.70;;;20.77;;
22983;SDS011;11658;48.908;9.140;2024-01-11T06:13:40;37.50;;;26.30;;
22983;SDS011;11658;48.908;9.140;2024-01-11T06:16:06;30.57;;;20.63;;
22983;SDS011;11658;48.908;9.140;2024-01-11T06:18:32;28.13;;;19.43;;
22983;SDS011;11658;48.908;9.140;2024-01-11T06:20:58;27.13;;;19.90;;
22983;SDS011;11658;48.908;9.140;2024-01-11T06:23:24;50.77;;;33.13;;
22983;SDS011;11658;48.908;9.140;2024-01-11T06:25:50;33.37;;;22.50;;
22983;SDS011;11658;48.908;9.140;2024-01-11T06:28:16;30.07;;;19.77;;
22983;SDS011;11658;48.908;9.140;2024-01-11T06:30:41;27.37;;;18.97;;
22983;SDS011;11658;48.908;9.140;2024-01-11T06:33:08;31.37;;;20.00;;
22983;SDS011;11658;48.908;9.140;2024-01-11T06:35:34;28.30;;;19.03;;
22983;SDS011;11658;48.908;9.140;2024-01-11T06:37:59;26.87;;;18.07;;
22983;SDS011;11658;48.908;9.140;2024-01-11T06:40:25;24.20;;;17.60;;
22983;SDS011;11658;48.908;9.140;2024-01-11T06:42:51;29.93;;;18.63;;
22983;SDS011;11658;48.908;9.140;2024-01-11T06:45:16;28.43;;;17.93;;
22983;SDS011;11658;48.908;9.140;2024-01-11T06:47:42;29.87;;;19.97;;
22983;SDS011;11658;48.908;9.140;2024-01-11T06:50:11;32.60;;;21.20;;
22983;SDS011;11658;48.908;9.140;2024-01-11T06:52:37;34.37;;;22.13;;
22983;SDS011;11658;48.908;9.140;2024-01-11T06:55:03;27.40;;;18.57;;
22983;SDS011;11658;48.908;9.140;2024-01-11T06:57:29;27.27;;;19.20;;
22983;SDS011;11658;48.908;9.140;2024-01-11T06:59:55;26.10;;;18.00;;
22983;SDS011;11658;48.908;9.140;2024-01-11T07:02:21;31.87;;;21.10;;
22983;SDS011;11658;48.908;9.140;2024-01-11T07:04:47;39.33;;;22.77;;
22983;SDS011;11658;48.908;9.140;2024-01-11T07:07:12;30.43;;;20.27;;
22983;SDS011;11658;48.908;9.140;2024-01-11T07:09:38;31.47;;;19.37;;
22983;SDS011;11658;48.908;9.140;2024-01-11T07:12:04;30.43;;;19.30;;
22983;SDS011;11658;48.908;9.140;2024-01-11T07:14:31;27.17;;;17.50;;
22983;SDS011;11658;48.908;9.140;2024-01-11T07:16:56;25.63;;;16.37;;
22983;SDS011;11658;48.908;9.140;2024-01-11T07:19:22;23.63;;;15.87;;
22983;SDS011;11658;48.908;9.140;2024-01-11T07:21:48;24.63;;;16.87;;
22983;SDS011;11658;48.908;9.140;2024-01-11T07:24:13;24.27;;;16.17;;
22983;SDS011;11658;48.908;9.140;2024-01-11T07:26:39;23.07;;;15.10;;
22983;SDS011;11658;48.908;9.140;2024-01-11T07:29:05;24.13;;;15.43;;
22983;SDS011;11658;48.908;9.140;2024-01-11T07:31:30;24.57;;;16.43;;
22983;SDS011;11658;48.908;9.140;2024-01-11T07:33:56;22.03;;;15.50;;
22983;SDS011;11658;48.908;9.140;2024-01-11T07:36:21;24.10;;;16.47;;
22983;SDS011;11658;48.908;9.140;2024-01-11T07:38:47;24.83;;;17.23;;
22983;SDS011;11658;48.908;9.140;2024-01-11T07:41:13;26.17;;;17.50;;
22983;SDS011;11658;48.908;9.140;2024-01-11T07:43:39;25.83;;;17.07;;
22983;SDS011;11658;48.908;9.140;2024-01-11T07:46:05;26.53;;;17.80;;
22983;SDS011;11658;48.908;9.140;2024-01-11T07:48:32;25.30;;;16.47;;
22983;SDS011;11658;48.908;9.140;2024-01-11T07:50:58;28.90;;;18.00;;
22983;SDS011;11658;48.908;9.140;2024-01-11T07:53:24;26.43;;;16.83;;
22983;SDS011;11658;48.908;9.140;2024-01-11T07:55:51;27.63;;;16.77;;
22983;SDS011;11658;48.908;9.140;2024-01-11T07:58:17;23.47;;;16.80;;
22983;SDS011;11658;48.908;9.140;2024-01-11T08:00:43;26.83;;;17.77;;
22983;SDS011;11658;48.908;9.140;2024-01-11T08:03:10;28.20;;;17.80;;
22983;SDS011;11658;48.908;9.140;2024-01-11T08:05:35;23.57;;;16.23;;
22983;SDS011;11658;48.908;9.140;2024-01-11T08:08:01;25.57;;;16.90;;
22983;SDS011;11658;48.908;9.140;2024-01-11T08:10:28;26.23;;;17.70;;
22983;SDS011;11658;48.908;9.140;2024-01-11T08:12:55;32.50;;;19.53;;
22983;SDS011;11658;48.908;9.140;2024-01-11T08:15:21;29.20;;;19.57;;
22983;SDS011;11658;48.908;9.140;2024-01-11T08:17:47;26.47;;;18.40;;
22983;SDS011;11658;48.908;9.140;2024-01-11T08:20:13;27.77;;;19.17;;
22983;SDS011;11658;48.908;9.140;2024-01-11T08:22:39;34.50;;;20.57;;
22983;SDS011;11658;48.908;9.140;2024-01-11T08:25:12;30.87;;;19.93;;
22983;SDS011;11658;48.908;9.140;2024-01-11T08:27:38;33.07;;;20.27;;
22983;SDS011;11658;48.908;9.140;2024-01-11T08:30:05;33.57;;;21.00;;
22983;SDS011;11658;48.908;9.140;2024-01-11T08:32:31;29.30;;;19.97;;
22983;SDS011;11658;48.908;9.140;2024-01-11T08:35:04;28.17;;;17.23;;
22983;SDS011;11658;48.908;9.140;2024-01-11T08:37:31;26.70;;;17.60;;
22983;SDS011;11658;48.908;9.140;2024-01-11T08:39:57;25.10;;;17.97;;
22983;SDS011;11658;48.908;9.140;2024-01-11T08:42:23;25.87;;;17.37;;
22983;SDS011;11658;48.908;9.140;2024-01-11T08:44:48;24.43;;;16.20;;
22983;SDS011;11658;48.908;9.140;2024-01-11T08:47:14;27.07;;;18.00;;
22983;SDS011;11658;48.908;9.140;2024-01-11T08:49:39;24.77;;;17.27;;
22983;SDS011;11658;48.908;9.140;2024-01-11T08:52:05;24.33;;;16.30;;
22983;SDS011;11658;48.908;9.140;2024-01-11T08:54:32;28.10;;;19.17;;
22983;SDS011;11658;48.908;9.140;2024-01-11T08:56:58;23.03;;;16.93;;
22983;SDS011;11658;48.908;9.140;2024-01-11T08:59:24;23.80;;;16.93;;
22983;SDS011;11658;48.908;9.140;2024-01-11T09:01:51;24.90;;;17.30;;
22983;SDS011;11658;48.908;9.140;2024-01-11T09:04:17;22.87;;;16.63;;
22983;SDS011;11658;48.908;9.140;2024-01-11T09:06:43;22.87;;;15.77;;
22983;SDS011;11658;48.908;9.140;2024-01-11T09:09:09;23.70;;;15.70;;
22983;SDS011;11658;48.908;9.140;2024-01-11T09:11:35;37.20;;;20.47;;
22983;SDS011;11658;48.908;9.140;2024-01-11T09:14:01;22.70;;;15.77;;
22983;SDS011;11658;48.908;9.140;2024-01-11T09:16:30;22.00;;;15.13;;
22983;SDS011;11658;48.908;9.140;2024-01-11T09:18:56;23.23;;;15.83;;
22983;SDS011;11658;48.908;9.140;2024-01-11T09:21:21;22.17;;;14.83;;
22983;SDS011;11658;48.908;9.140;2024-01-11T09:23:47;21.40;;;15.07;;
22983;SDS011;11658;48.908;9.140;2024-01-11T09:26:13;26.37;;;16.43;;
22983;SDS011;11658;48.908;9.140;2024-01-11T09:28:38;20.30;;;15.60;;
22983;SDS011;11658;48.908;9.140;2024-01-11T09:31:04;21.77;;;14.87;;
22983;SDS011;11658;48.908;9.140;2024-01-11T09:33:29;24.10;;;15.10;;
22983;SDS011;11658;48.908;9.140;2024-01-11T09:35:55;21.30;;;15.73;;
22983;SDS011;11658;48.908;9.140;2024-01-11T09:38:21;23.67;;;15.83;;
22983;SDS011;11658;48.908;9.140;2024-01-11T09:40:48;19.90;;;15.10;;
22983;SDS011;11658;48.908;9.140;2024-01-11T09:43:40;23.53;;;15.97;;
22983;SDS011;11658;48.908;9.140;2024-01-11T09:46:07;22.17;;;15.10;;
22983;SDS011;11658;48.908;9.140;2024-01-11T09:48:34;24.33;;;16.07;;
22983;SDS011;11658;48.908;9.140;2024-01-11T09:51:04;21.33;;;14.97;;
22983;SDS011;11658;48.908;9.140;2024-01-11T09:53:35;22.30;;;15.60;;
22983;SDS011;11658;48.908;9.140;2024-01-11T09:56:03;22.70;;;15.37;;
22983;SDS011;11658;48.908;9.140;2024-01-11T09:58:34;20.53;;;15.40;;
22983;SDS011;11658;48.908;9.140;2024-01-11T10:01:04;22.50;;;15.63;;
22983;SDS011;11658;48.908;9.140;2024-01-11T10:03:33;21.40;;;15.07;;
22983;SDS011;11658;48.908;9.140;2024-01-11T10:05:59;20.93;;;15.73;;
22983;SDS011;11658;48.908;9.140;2024-01-11T10:08:27;24.83;;;16.33;;
22983;SDS011;11658;48.908;9.140;2024-01-11T10:10:54;21.13;;;15.37;;
22983;SDS011;11658;48.908;9.140;2024-01-11T10:13:25;22.43;;;16.10;;
22983;SDS011;11658;48.908;9.140;2024-01-11T10:16:28;23.60;;;15.83;;
22983;SDS011;11658;48.908;9.140;2024-01-11T10:18:46;22.00;;;16.07;;
22983;SDS011;11658;48.908;9.140;2024-01-11T10:21:12;24.33;;;16.23;;
22983;SDS011;11658;48.908;9.140;2024-01-11T10:23:38;23.80;;;15.87;;
22983;SDS011;11658;48.908;9.140;2024-01-11T10:26:04;24.20;;;15.53;;
22983;SDS011;11658;48.908;9.140;2024-01-11T10:28:32;22.00;;;15.53;;
22983;SDS011;11658;48.908;9.140;2024-01-11T10:31:02;21.57;;;16.13;;
22983;SDS011;11658;48.908;9.140;2024-01-11T10:33:33;23.80;;;17.40;;
22983;SDS011;11658;48.908;9.140;2024-01-11T10:36:00;23.43;;;16.50;;
22983;SDS011;11658;48.908;9.140;2024-01-11T10:38:26;23.33;;;16.47;;
22983;SDS011;11658;48.908;9.140;2024-01-11T10:40:54;20.83;;;15.57;;
22983;SDS011;11658;48.908;9.140;2024-01-11T10:43:25;21.50;;;15.60;;
22983;SDS011;11658;48.908;9.140;2024-01-11T10:45:51;24.73;;;16.37;;
22983;SDS011;11658;48.908;9.140;2024-01-11T10:48:21;23.77;;;17.60;;
22983;SDS011;11658;48.908;9.140;2024-01-11T10:50:51;23.37;;;17.57;;
22983;SDS011;11658;48.908;9.140;2024-01-11T10:56:11;24.27;;;17.37;;
22983;SDS011;11658;48.908;9.140;2024-01-11T10:58:39;27.57;;;17.60;;
22983;SDS011;11658;48.908;9.140;2024-01-11T11:01:06;24.30;;;17.23;;
22983;SDS011;11658;48.908;9.140;2024-01-11T11:03:33;24.23;;;16.67;;
22983;SDS011;11658;48.908;9.140;2024-01-11T11:06:00;25.10;;;17.43;;
22983;SDS011;11658;48.908;9.140;2024-01-11T11:08:27;22.80;;;16.87;;
22983;SDS011;11658;48.908;9.140;2024-01-11T11:10:54;26.27;;;16.53;;
22983;SDS011;11658;48.908;9.140;2024-01-11T11:13:22;24.73;;;17.10;;
22983;SDS011;11658;48.908;9.140;2024-01-11T11:15:47;22.97;;;16.77;;
22983;SDS011;11658;48.908;9.140;2024-01-11T11:18:16;25.40;;;16.43;;
22983;SDS011;11658;48.908;9.140;2024-01-11T11:20:43;27.80;;;17.27;;
22983;SDS011;11658;48.908;9.140;2024-01-11T11:23:10;24.43;;;16.70;;
22983;SDS011;11658;48.908;9.140;2024-01-11T11:25:41;26.03;;;17.27;;
22983;SDS011;11658;48.908;9.140;2024-01-11T11:28:07;23.13;;;16.83;;
22983;SDS011;11658;48.908;9.140;2024-01-11T11:30:33;24.47;;;16.80;;
22983;SDS011;11658;48.908;9.140;2024-01-11T11:35:54;22.37;;;16.33;;
22983;SDS011;11658;48.908;9.140;2024-01-11T11:38:23;23.87;;;16.47;;
22983;SDS011;11658;48.908;9.140;2024-01-11T11:40:51;23.17;;;17.67;;
22983;SDS011;11658;48.908;9.140;2024-01-11T11:43:18;27.23;;;17.70;;
22983;SDS011;11658;48.908;9.140;2024-01-11T11:45:48;39.47;;;22.90;;
22983;SDS011;11658;48.908;9.140;2024-01-11T11:53:34;26.63;;;18.83;;
22983;SDS011;11658;48.908;9.140;2024-01-11T11:56:00;26.57;;;17.67;;
22983;SDS011;11658;48.908;9.140;2024-01-11T11:58:27;26.13;;;17.73;;
22983;SDS011;11658;48.908;9.140;2024-01-11T12:00:57;28.50;;;18.70;;
22983;SDS011;11658;48.908;9.140;2024-01-11T12:03:42;24.73;;;17.30;;
22983;SDS011;11658;48.908;9.140;2024-01-11T12:06:16;26.23;;;17.20;;
22983;SDS011;11658;48.908;9.140;2024-01-11T12:08:43;24.10;;;17.53;;
22983;SDS011;11658;48.908;9.140;2024-01-11T12:11:13;27.00;;;18.23;;
22983;SDS011;11658;48.908;9.140;2024-01-11T12:13:40;25.93;;;18.17;;
22983;SDS011;11658;48.908;9.140;2024-01-11T12:16:06;27.50;;;19.13;;
22983;SDS011;11658;48.908;9.140;2024-01-11T12:18:31;25.17;;;18.17;;
22983;SDS011;11658;48.908;9.140;2024-01-11T12:20:57;27.13;;;19.30;;
22983;SDS011;11658;48.908;9.140;2024-01-11T12:23:23;26.97;;;18.80;;
22983;SDS011;11658;48.908;9.140;2024-01-11T12:25:48;25.33;;;18.53;;
22983;SDS011;11658;48.908;9.140;2024-01-11T12:28:14;50.10;;;26.23;;
22983;SDS011;11658;48.908;9.140;2024-01-11T12:30:40;27.20;;;18.70;;
22983;SDS011;11658;48.908;9.140;2024-01-11T12:33:07;28.60;;;18.57;;
22983;SDS011;11658;48.908;9.140;2024-01-11T12:35:33;24.10;;;17.97;;
22983;SDS011;11658;48.908;9.140;2024-01-11T12:37:59;24.30;;;17.47;;
22983;SDS011;11658;48.908;9.140;2024-01-11T12:40:27;26.80;;;18.87;;
22983;SDS011;11658;48.908;9.140;2024-01-11T12:42:53;25.13;;;18.73;;
22983;SDS011;11658;48.908;9.140;2024-01-11T12:45:19;23.30;;;17.27;;
22983;SDS011;11658;48.908;9.140;2024-01-11T12:47:45;24.83;;;17.90;;
22983;SDS011;11658;48.908;9.140;2024-01-11T12:50:11;25.20;;;17.30;;
22983;SDS011;11658;48.908;9.140;2024-01-11T12:52:37;25.93;;;18.37;;
22983;SDS011;11658;48.908;9.140;2024-01-11T12:55:03;25.67;;;18.87;;
22983;SDS011;11658;48.908;9.140;2024-01-11T12:57:30;27.83;;;18.27;;
22983;SDS011;11658;48.908;9.140;2024-01-11T12:59:55;23.93;;;17.40;;
22983;SDS011;11658;48.908;9.140;2024-01-11T13:02:38;26.07;;;17.67;;
22983;SDS011;11658;48.908;9.140;2024-01-11T13:05:05;24.73;;;17.60;;
22983;SDS011;11658;48.908;9.140;2024-01-11T13:07:32;26.33;;;17.80;;
22983;SDS011;11658;48.908;9.140;2024-01-11T13:09:58;25.00;;;17.00;;
22983;SDS011;11658;48.908;9.140;2024-01-11T13:12:24;26.07;;;17.93;;
22983;SDS011;11658;48.908;9.140;2024-01-11T13:14:50;24.13;;;17.80;;
22983;SDS011;11658;48.908;9.140;2024-01-11T13:17:17;23.53;;;17.67;;
22983;SDS011;11658;48.908;9.140;2024-01-11T13:19:43;26.67;;;17.87;;
22983;SDS011;11658;48.908;9.140;2024-01-11T13:22:09;27.47;;;18.83;;
22983;SDS011;11658;48.908;9.140;2024-01-11T13:24:35;25.13;;;18.23;;
22983;SDS011;11658;48.908;9.140;2024-01-11T13:27:01;24.27;;;17.40;;
22983;SDS011;11658;48.908;9.140;2024-01-11T13:29:26;25.83;;;18.10;;
22983;SDS011;11658;48.908;9.140;2024-01-11T13:31:52;24.23;;;17.60;;
22983;SDS011;11658;48.908;9.140;2024-01-11T13:34:18;26.80;;;18.50;;
22983;SDS011;11658;48.908;9.140;2024-01-11T13:36:44;25.40;;;18.43;;
22983;SDS011;11658;48.908;9.140;2024-01-11T13:39:10;43.17;;;23.47;;
22983;SDS011;11658;48.908;9.140;2024-01-11T13:41:36;24.33;;;17.27;;
22983;SDS011;11658;48.908;9.140;2024-01-11T13:44:01;24.50;;;17.97;;
22983;SDS011;11658;48.908;9.140;2024-01-11T13:46:30;25.33;;;17.37;;
22983;SDS011;11658;48.908;9.140;2024-01-11T13:48:56;25.53;;;18.27;;
22983;SDS011;11658;48.908;9.140;2024-01-11T13:51:21;25.70;;;18.37;;
22983;SDS011;11658;48.908;9.140;2024-01-11T13:53:47;23.13;;;17.17;;
22983;SDS011;11658;48.908;9.140;2024-01-11T13:56:13;22.17;;;17.00;;
22983;SDS011;11658;48.908;9.140;2024-01-11T13:58:38;25.43;;;18.77;;
22983;SDS011;11658;48.908;9.140;2024-01-11T14:01:04;26.43;;;17.93;;
22983;SDS011;11658;48.908;9.140;2024-01-11T14:03:30;23.17;;;16.83;;
22983;SDS011;11658;48.908;9.140;2024-01-11T14:05:55;24.07;;;18.27;;
22983;SDS011;11658;48.908;9.140;2024-01-11T14:08:21;23.57;;;17.90;;
22983;SDS011;11658;48.908;9.140;2024-01-11T14:10:47;23.97;;;17.40;;
22983;SDS011;11658;48.908;9.140;2024-01-11T14:13:13;23.60;;;16.20;;
22983;SDS011;11658;48.908;9.140;2024-01-11T14:15:38;25.10;;;17.43;;
22983;SDS011;11658;48.908;9.140;2024-01-11T14:18:05;24.07;;;18.07;;
22983;SDS011;11658;48.908;9.140;2024-01-11T14:20:32;24.60;;;17.63;;
22983;SDS011;11658;48.908;9.140;2024-01-11T14:22:59;26.13;;;17.87;;
22983;SDS011;11658;48.908;9.140;2024-01-11T14:25:24;24.90;;;17.43;;
22983;SDS011;11658;48.908;9.140;2024-01-11T14:27:50;28.03;;;18.40;;
22983;SDS011;11658;48.908;9.140;2024-01-11T14:30:17;23.97;;;18.37;;
22983;SDS011;11658;48.908;9.140;2024-01-11T14:32:43;21.63;;;16.30;;
22983;SDS011;11658;48.908;9.140;2024-01-11T14:35:10;27.20;;;18.37;;
22983;SDS011;11658;48.908;9.140;2024-01-11T14:37:36;24.30;;;16.80;;
22983;SDS011;11658;48.908;9.140;2024-01-11T14:40:06;25.53;;;18.10;;
22983;SDS011;11658;48.908;9.140;2024-01-11T14:42:36;24.57;;;17.70;;
22983;SDS011;11658;48.908;9.140;2024-01-11T14:45:02;25.03;;;17.73;;
22983;SDS011;11658;48.908;9.140;2024-01-11T14:47:29;24.47;;;17.30;;
22983;SDS011;11658;48.908;9.140;2024-01-11T14:49:56;24.70;;;17.63;;
22983;SDS011;11658;48.908;9.140;2024-01-11T14:52:22;20.97;;;16.93;;
22983;SDS011;11658;48.908;9.140;2024-01-11T14:54:47;22.77;;;16.97;;
22983;SDS011;11658;48.908;9.140;2024-01-11T14:57:13;22.67;;;16.57;;
22983;SDS011;11658;48.908;9.140;2024-01-11T14:59:39;23.03;;;17.37;;
22983;SDS011;11658;48.908;9.140;2024-01-11T15:02:05;25.93;;;17.30;;
22983;SDS011;11658;48.908;9.140;2024-01-11T15:04:31;23.67;;;17.90;;
22983;SDS011;11658;48.908;9.140;2024-01-11T15:06:56;26.23;;;17.93;;
22983;SDS011;11658;48.908;9.140;2024-01-11T15:09:22;24.87;;;17.37;;
22983;SDS011;11658;48.908;9.140;2024-01-11T15:11:48;24.10;;;17.80;;
22983;SDS011;11658;48.908;9.140;2024-01-11T15:14:13;26.43;;;17.67;;
22983;SDS011;11658;48.908;9.140;2024-01-11T15:16:39;23.37;;;17.00;;
22983;SDS011;11658;48.908;9.140;2024-01-11T15:19:05;25.40;;;17.97;;
22983;SDS011;11658;48.908;9.140;2024-01-11T15:21:30;21.93;;;17.10;;
22983;SDS011;11658;48.908;9.140;2024-01-11T15:23:56;26.27;;;17.53;;
22983;SDS011;11658;48.908;9.140;2024-01-11T15:26:25;24.37;;;17.40;;
22983;SDS011;11658;48.908;9.140;2024-01-11T15:28:51;25.00;;;17.87;;
22983;SDS011;11658;48.908;9.140;2024-01-11T15:31:17;27.07;;;18.90;;
22983;SDS011;11658;48.908;9.140;2024-01-11T15:33:43;22.13;;;17.40;;
22983;SDS011;11658;48.908;9.140;2024-01-11T15:36:08;27.67;;;17.70;;
22983;SDS011;11658;48.908;9.140;2024-01-11T15:38:34;25.07;;;17.47;;
22983;SDS011;11658;48.908;9.140;2024-01-11T15:41:00;26.33;;;18.23;;
22983;SDS011;11658;48.908;9.140;2024-01-11T15:43:26;25.07;;;17.80;;
22983;SDS011;11658;48.908;9.140;2024-01-11T15:45:51;24.27;;;17.93;;
22983;SDS011;11658;48.908;9.140;2024-01-11T15:48:17;25.73;;;18.13;;
22983;SDS011;11658;48.908;9.140;2024-01-11T15:50:42;23.63;;;17.83;;
22983;SDS011;11658;48.908;9.140;2024-01-11T15:53:08;25.00;;;18.10;;
22983;SDS011;11658;48.908;9.140;2024-01-11T15:55:34;24.07;;;18.40;;
22983;SDS011;11658;48.908;9.140;2024-01-11T15:57:59;24.37;;;18.10;;
22983;SDS011;11658;48.908;9.140;2024-01-11T16:00:26;24.03;;;18.00;;
22983;SDS011;11658;48.908;9.140;2024-01-11T16:02:52;27.07;;;18.40;;
22983;SDS011;11658;48.908;9.140;2024-01-11T16:05:20;25.53;;;18.10;;
22983;SDS011;11658;48.908;9.140;2024-01-11T16:07:47;23.43;;;17.40;;
22983;SDS011;11658;48.908;9.140;2024-01-11T16:10:12;26.43;;;16.23;;
22983;SDS011;11658;48.908;9.140;2024-01-11T16:12:39;22.70;;;17.10;;
22983;SDS011;11658;48.908;9.140;2024-01-11T16:15:05;26.30;;;18.70;;
22983;SDS011;11658;48.908;9.140;2024-01-11T16:17:31;22.13;;;16.70;;
22983;SDS011;11658;48.908;9.140;2024-01-11T16:19:57;24.97;;;18.00;;
22983;SDS011;11658;48.908;9.140;2024-01-11T16:22:23;25.30;;;18.13;;
22983;SDS011;11658;48.908;9.140;2024-01-11T16:24:49;25.90;;;17.17;;
22983;SDS011;11658;48.908;9.140;2024-01-11T16:27:15;23.97;;;17.00;;
22983;SDS011;11658;48.908;9.140;2024-01-11T16:29:41;24.37;;;17.47;;
22983;SDS011;11658;48.908;9.140;2024-01-11T16:32:07;27.00;;;19.10;;
22983;SDS011;11658;48.908;9.140;2024-01-11T16:34:33;23.27;;;17.00;;
22983;SDS011;11658;48.908;9.140;2024-01-11T16:37:00;25.87;;;17.63;;
22983;SDS011;11658;48.908;9.140;2024-01-11T16:39:26;25.83;;;17.63;;
22983;SDS011;11658;48.908;9.140;2024-01-11T16:41:52;25.43;;;16.97;;
22983;SDS011;11658;48.908;9.140;2024-01-11T16:44:17;25.83;;;17.73;;
22983;SDS011;11658;48.908;9.140;2024-01-11T16:46:43;24.97;;;18.47;;
22983;SDS011;11658;48.908;9.140;2024-01-11T16:49:09;25.53;;;18.57;;
22983;SDS011;11658;48.908;9.140;2024-01-11T16:51:45;25.77;;;17.87;;
22983;SDS011;11658;48.908;9.140;2024-01-11T16:54:14;24.53;;;18.23;;
22983;SDS011;11658;48.908;9.140;2024-01-11T16:56:40;23.90;;;17.83;;
22983;SDS011;11658;48.908;9.140;2024-01-11T16:59:05;25.07;;;18.27;;
22983;SDS011;11658;48.908;9.140;2024-01-11T17:01:31;26.37;;;19.30;;
22983;SDS011;11658;48.908;9.140;2024-01-11T17:03:57;24.97;;;18.13;;
22983;SDS011;11658;48.908;9.140;2024-01-11T17:06:24;26.67;;;18.23;;
22983;SDS011;11658;48.908;9.140;2024-01-11T17:08:50;24.80;;;18.07;;
22983;SDS011;11658;48.908;9.140;2024-01-11T17:11:17;29.53;;;19.40;;
22983;SDS011;11658;48.908;9.140;2024-01-11T17:13:43;27.77;;;19.57;;
22983;SDS011;11658;48.908;9.140;2024-01-11T17:16:15;27.10;;;18.90;;
22983;SDS011;11658;48.908;9.140;2024-01-11T17:18:41;27.03;;;18.33;;
22983;SDS011;11658;48.908;9.140;2024-01-11T17:21:07;26.43;;;18.37;;
22983;SDS011;11658;48.908;9.140;2024-01-11T17:23:33;26.90;;;18.00;;
22983;SDS011;11658;48.908;9.140;2024-01-11T17:25:59;25.30;;;17.63;;
22983;SDS011;11658;48.908;9.140;2024-01-11T17:28:24;26.10;;;18.07;;
22983;SDS011;11658;48.908;9.140;2024-01-11T17:30:50;23.47;;;16.27;;
22983;SDS011;11658;48.908;9.140;2024-01-11T17:33:16;25.73;;;16.97;;
22983;SDS011;11658;48.908;9.140;2024-01-11T17:35:42;23.73;;;18.33;;
22983;SDS011;11658;48.908;9.140;2024-01-11T17:38:08;28.83;;;21.70;;
22983;SDS011;11658;48.908;9.140;2024-01-11T17:40:34;29.77;;;19.67;;
22983;SDS011;11658;48.908;9.140;2024-01-11T17:43:00;31.60;;;20.77;;
22983;SDS011;11658;48.908;9.140;2024-01-11T17:45:27;30.33;;;20.17;;
22983;SDS011;11658;48.908;9.140;2024-01-11T17:47:53;32.17;;;20.50;;
22983;SDS011;11658;48.908;9.140;2024-01-11T17:50:19;28.47;;;20.60;;
22983;SDS011;11658;48.908;9.140;2024-01-11T17:52:45;30.97;;;20.73;;
22983;SDS011;11658;48.908;9.140;2024-01-11T17:55:11;28.87;;;20.07;;
22983;SDS011;11658;48.908;9.140;2024-01-11T17:57:36;26.90;;;19.13;;
22983;SDS011;11658;48.908;9.140;2024-01-11T18:00:03;28.10;;;20.03;;
22983;SDS011;11658;48.908;9.140;2024-01-11T18:02:31;29.27;;;20.10;;
22983;SDS011;11658;48.908;9.140;2024-01-11T18:04:57;27.97;;;19.27;;
22983;SDS011;11658;48.908;9.140;2024-01-11T18:07:23;27.57;;;19.77;;
22983;SDS011;11658;48.908;9.140;2024-01-11T18:09:50;27.20;;;19.37;;
22983;SDS011;11658;48.908;9.140;2024-01-11T18:12:17;25.33;;;18.97;;
22983;SDS011;11658;48.908;9.140;2024-01-11T18:14:44;26.77;;;17.90;;
22983;SDS011;11658;48.908;9.140;2024-01-11T18:17:10;26.33;;;18.73;;
22983;SDS011;11658;48.908;9.140;2024-01-11T18:19:36;26.87;;;18.77;;
22983;SDS011;11658;48.908;9.140;2024-01-11T18:22:01;24.13;;;17.60;;
22983;SDS011;11658;48.908;9.140;2024-01-11T18:24:27;26.23;;;19.07;;
22983;SDS011;11658;48.908;9.140;2024-01-11T18:26:53;26.83;;;19.53;;
22983;SDS011;11658;48.908;9.140;2024-01-11T18:29:19;27.63;;;18.93;;
22983;SDS011;11658;48.908;9.140;2024-01-11T18:31:47;27.73;;;19.67;;
22983;SDS011;11658;48.908;9.140;2024-01-11T18:34:12;26.90;;;19.53;;
22983;SDS011;11658;48.908;9.140;2024-01-11T18:36:47;25.10;;;18.10;;
22983;SDS011;11658;48.908;9.140;2024-01-11T18:39:12;27.03;;;18.83;;
22983;SDS011;11658;48.908;9.140;2024-01-11T18:41:39;30.23;;;20.10;;
22983;SDS011;11658;48.908;9.140;2024-01-11T18:44:05;26.17;;;18.47;;
22983;SDS011;11658;48.908;9.140;2024-01-11T18:46:30;24.77;;;17.87;;
22983;SDS011;11658;48.908;9.140;2024-01-11T18:48:56;24.57;;;19.00;;
22983;SDS011;11658;48.908;9.140;2024-01-11T18:51:21;29.60;;;20.20;;
22983;SDS011;11658;48.908;9.140;2024-01-11T18:53:47;27.87;;;18.27;;
22983;SDS011;11658;48.908;9.140;2024-01-11T18:56:13;28.47;;;20.30;;
22983;SDS011;11658;48.908;9.140;2024-01-11T18:58:40;28.63;;;20.60;;
22983;SDS011;11658;48.908;9.140;2024-01-11T19:01:06;27.20;;;20.73;;
22983;SDS011;11658;48.908;9.140;2024-01-11T19:03:33;28.00;;;20.43;;
22983;SDS011;11658;48.908;9.140;2024-01-11T19:05:59;34.33;;;22.77;;
22983;SDS011;11658;48.908;9.140;2024-01-11T19:08:24;31.10;;;22.57;;
22983;SDS011;11658;48.908;9.140;2024-01-11T19:10:53;28.83;;;21.07;;
22983;SDS011;11658;48.908;9.140;2024-01-11T19:13:19;33.17;;;23.40;;
22983;SDS011;11658;48.908;9.140;2024-01-11T19:15:44;35.83;;;23.50;;
22983;SDS011;11658;48.908;9.140;2024-01-11T19:18:13;32.67;;;22.57;;
22983;SDS011;11658;48.908;9.140;2024-01-11T19:20:39;27.63;;;21.20;;
22983;SDS011;11658;48.908;9.140;2024-01-11T19:23:05;31.77;;;22.40;;
22983;SDS011;11658;48.908;9.140;2024-01-11T19:25:31;30.80;;;22.57;;
22983;SDS011;11658;48.908;9.140;2024-01-11T19:27:58;31.77;;;22.80;;